createdAt,value
2022-08-17T00:00:34.234Z,7.97
2022-08-17T00:03:17.626Z,7.20
2022-08-17T00:05:56.117Z,8.83
2022-08-17T00:08:32.429Z,7.27
2022-08-17T00:11:00.619Z,8.70
2022-08-17T00:13:35.705Z,8.20
2022-08-17T00:16:09.691Z,9.37
2022-08-17T00:18:58.328Z,9.17
2022-08-17T00:21:25.283Z,8.73
2022-08-17T00:23:53.467Z,7.83
2022-08-17T00:26:44.528Z,7.20
2022-08-17T00:29:10.347Z,9.63
2022-08-17T00:31:44.997Z,8.70
2022-08-17T00:34:12.302Z,8.80
2022-08-17T00:36:39.231Z,6.97
2022-08-17T00:39:06.370Z,7.87
2022-08-17T00:41:35.895Z,7.70
2022-08-17T00:44:05.109Z,8.40
2022-08-17T00:46:41.146Z,7.90
2022-08-17T00:49:09.739Z,8.17
2022-08-17T00:51:55.197Z,8.93
2022-08-17T00:54:42.275Z,10.30
2022-08-17T00:57:19.869Z,10.03
2022-08-17T01:00:21.553Z,8.90
2022-08-17T01:02:49.517Z,9.60
2022-08-17T01:05:25.752Z,7.77
2022-08-17T01:07:53.699Z,8.57
2022-08-17T01:10:57.522Z,8.50
2022-08-17T01:13:18.139Z,8.23
2022-08-17T01:16:04.582Z,8.60
2022-08-17T01:18:33.075Z,8.10
2022-08-17T01:21:20.244Z,8.40
2022-08-17T01:23:47.208Z,8.07
2022-08-17T01:26:14.422Z,9.80
2022-08-17T01:28:55.512Z,7.73
2022-08-17T01:31:28.621Z,8.13
2022-08-17T01:34:00.012Z,7.57
2022-08-17T01:36:29.143Z,7.03
2022-08-17T01:38:56.547Z,7.77
2022-08-17T01:41:24.332Z,7.10
2022-08-17T01:44:04.037Z,8.10
2022-08-17T01:46:37.062Z,7.00
2022-08-17T01:49:11.180Z,7.53
2022-08-17T01:51:39.656Z,7.57
2022-08-17T01:54:14.867Z,7.37
2022-08-17T01:56:47.382Z,6.90
2022-08-17T01:59:18.328Z,7.37
2022-08-17T02:01:46.311Z,6.73
2022-08-17T02:04:14.065Z,6.73
2022-08-17T02:06:52.603Z,6.60
2022-08-17T02:09:25.584Z,7.23
2022-08-17T02:11:56.373Z,6.93
2022-08-17T02:14:24.678Z,6.40
2022-08-17T02:16:53.043Z,7.03
2022-08-17T02:19:22.091Z,6.27
2022-08-17T02:21:54.137Z,6.53
2022-08-17T02:25:00.318Z,6.23
2022-08-17T02:27:16.272Z,7.63
2022-08-17T02:29:43.679Z,7.97
2022-08-17T02:32:27.548Z,7.03
2022-08-17T02:34:57.612Z,6.70
2022-08-17T02:37:26.527Z,7.23
2022-08-17T02:39:54.132Z,6.20
2022-08-17T02:42:29.876Z,7.60
2022-08-17T02:44:57.448Z,8.03
2022-08-17T02:47:24.785Z,10.33
2022-08-17T02:49:55.685Z,10.23
2022-08-17T02:52:42.863Z,11.00
2022-08-17T02:55:24.753Z,10.30
2022-08-17T02:57:53.121Z,9.63
2022-08-17T03:00:27.595Z,9.67
2022-08-17T03:02:59.038Z,9.80
2022-08-17T03:05:29.973Z,9.53
2022-08-17T03:07:57.840Z,9.60
2022-08-17T03:10:25.693Z,10.23
2022-08-17T03:12:53.955Z,11.07
2022-08-17T03:15:26.239Z,9.30
2022-08-17T03:17:55.443Z,11.73
2022-08-17T03:20:23.379Z,11.27
2022-08-17T03:22:53.878Z,10.27
2022-08-17T03:25:26.934Z,9.57
2022-08-17T03:27:55.154Z,8.40
2022-08-17T03:30:22.938Z,9.17
2022-08-17T03:32:52.541Z,8.20
2022-08-17T03:35:35.070Z,8.07
2022-08-17T03:38:02.033Z,8.20
2022-08-17T03:40:34.556Z,8.33
2022-08-17T03:43:21.320Z,12.17
2022-08-17T03:46:24.887Z,9.10
2022-08-17T03:49:13.338Z,9.87
2022-08-17T03:51:59.434Z,8.23
2022-08-17T03:54:44.898Z,8.90
2022-08-17T03:57:12.454Z,9.73
2022-08-17T03:59:41.021Z,10.37
2022-08-17T04:02:17.434Z,9.10
2022-08-17T04:04:44.871Z,8.63
2022-08-17T04:07:11.992Z,7.60
2022-08-17T04:09:38.943Z,7.43
2022-08-17T04:12:06.300Z,7.07
2022-08-17T04:14:52.149Z,6.80
2022-08-17T04:17:24.532Z,6.30
2022-08-17T04:19:52.107Z,6.57
2022-08-17T04:22:33.343Z,7.40
2022-08-17T04:25:17.577Z,6.93
2022-08-17T04:27:44.779Z,7.30
2022-08-17T04:30:12.431Z,8.07
2022-08-17T04:33:05.915Z,7.90
2022-08-17T04:35:42.232Z,10.43
2022-08-17T04:38:13.381Z,9.10
2022-08-17T04:40:58.698Z,10.60
2022-08-17T04:43:32.673Z,10.20
2022-08-17T04:46:05.091Z,11.93
2022-08-17T04:48:38.858Z,10.07
2022-08-17T04:51:33.549Z,8.70
2022-08-17T04:54:09.961Z,10.93
2022-08-17T04:56:37.795Z,11.07
2022-08-17T04:59:12.679Z,9.67
2022-08-17T05:01:42.791Z,8.90
2022-08-17T05:04:32.964Z,11.27
2022-08-17T05:07:04.689Z,9.57
2022-08-17T05:09:31.881Z,9.53
2022-08-17T05:12:02.305Z,9.30
2022-08-17T05:14:33.465Z,8.50
2022-08-17T05:17:04.144Z,9.50
2022-08-17T05:19:36.657Z,9.93
2022-08-17T05:22:06.253Z,8.50
2022-08-17T05:24:42.592Z,9.43
2022-08-17T05:27:18.758Z,7.53
2022-08-17T05:29:46.484Z,8.20
2022-08-17T05:32:37.323Z,6.73
2022-08-17T05:35:01.529Z,5.67
2022-08-17T05:37:28.535Z,8.10
2022-08-17T05:39:55.650Z,5.20
2022-08-17T05:42:24.089Z,5.07
2022-08-17T05:44:50.994Z,4.93
2022-08-17T05:47:18.573Z,4.30
2022-08-17T05:49:45.701Z,6.50
2022-08-17T05:53:02.263Z,4.10
2022-08-17T05:55:48.935Z,5.10
2022-08-17T05:58:31.343Z,4.20
2022-08-17T06:01:01.007Z,4.37
2022-08-17T06:04:12.418Z,4.43
2022-08-17T06:07:11.900Z,4.20
2022-08-17T06:10:03.489Z,6.83
2022-08-17T06:13:10.969Z,4.40
2022-08-17T06:15:59.515Z,5.77
2022-08-17T06:18:36.298Z,8.40
2022-08-17T06:21:07.330Z,3.97
2022-08-17T06:23:44.925Z,4.53
2022-08-17T06:26:27.496Z,5.33
2022-08-17T06:29:35.503Z,6.97
2022-08-17T06:32:05.342Z,7.17
2022-08-17T06:34:34.383Z,5.63
2022-08-17T06:37:32.555Z,6.67
2022-08-17T06:40:45.476Z,6.67
2022-08-17T06:43:47.804Z,5.90
2022-08-17T06:46:27.594Z,7.80
2022-08-17T06:49:16.207Z,7.80
2022-08-17T06:51:54.302Z,7.00
2022-08-17T06:55:18.030Z,8.57
2022-08-17T06:57:59.780Z,7.40
2022-08-17T07:00:41.725Z,8.20
2022-08-17T07:03:09.769Z,8.40
2022-08-17T07:05:57.965Z,8.70
2022-08-17T07:08:42.581Z,7.90
2022-08-17T07:11:17.533Z,16.20
2022-08-17T07:14:17.353Z,8.90
2022-08-17T07:16:50.717Z,8.60
2022-08-17T07:19:25.111Z,10.30
2022-08-17T07:22:22.014Z,9.23
2022-08-17T07:24:58.295Z,10.17
2022-08-17T07:27:41.898Z,9.80
2022-08-17T07:30:28.759Z,10.10
2022-08-17T07:33:08.456Z,14.00
2022-08-17T07:35:48.143Z,11.43
2022-08-17T07:38:25.890Z,9.90
2022-08-17T07:41:03.214Z,9.73
2022-08-17T07:43:39.325Z,11.50
2022-08-17T07:46:52.816Z,12.10
2022-08-17T07:49:32.474Z,10.97
2022-08-17T07:52:23.954Z,13.10
2022-08-17T07:54:56.347Z,11.90
2022-08-17T07:57:32.005Z,13.70
2022-08-17T08:00:01.962Z,8.77
2022-08-17T08:02:44.002Z,8.17
2022-08-17T08:05:29.886Z,9.43
2022-08-17T08:08:42.380Z,8.07
2022-08-17T08:11:15.459Z,8.43
2022-08-17T08:13:45.896Z,7.53
2022-08-17T08:16:29.203Z,8.83
2022-08-17T08:19:02.095Z,8.43
2022-08-17T08:22:02.545Z,6.63
2022-08-17T08:24:45.394Z,7.53
2022-08-17T08:27:50.429Z,8.47
2022-08-17T08:30:21.729Z,6.97
2022-08-17T08:33:17.490Z,7.90
2022-08-17T08:36:07.809Z,8.20
2022-08-17T08:38:39.597Z,9.23
2022-08-17T08:41:50.861Z,7.23
2022-08-17T08:45:07.795Z,8.40
2022-08-17T08:48:23.001Z,9.23
2022-08-17T08:51:14.349Z,10.30
2022-08-17T08:54:13.591Z,12.17
2022-08-17T08:57:19.219Z,7.90
2022-08-17T09:00:15.270Z,12.03
2022-08-17T09:03:15.027Z,9.67
2022-08-17T09:06:37.423Z,9.20
2022-08-17T09:09:09.098Z,9.43
2022-08-17T09:12:22.703Z,10.60
2022-08-17T09:15:15.950Z,10.67
2022-08-17T09:18:14.652Z,10.50
2022-08-17T09:20:55.478Z,10.83
2022-08-17T09:23:33.277Z,9.30
2022-08-17T09:26:31.812Z,11.63
2022-08-17T09:29:09.908Z,11.30
2022-08-17T09:31:59.583Z,9.93
2022-08-17T09:34:38.443Z,12.37
2022-08-17T09:37:25.017Z,11.03
2022-08-17T09:40:09.437Z,12.20
2022-08-17T09:43:16.035Z,11.67
2022-08-17T09:45:57.191Z,12.13
2022-08-17T09:48:43.956Z,12.43
2022-08-17T09:51:32.577Z,13.20
2022-08-17T09:54:20.930Z,13.23
2022-08-17T09:57:29.886Z,12.73
2022-08-17T10:00:26.901Z,12.07
2022-08-17T10:03:48.911Z,11.77
2022-08-17T10:06:24.710Z,14.83
2022-08-17T10:09:24.625Z,8.70
2022-08-17T10:12:19.978Z,11.10
2022-08-17T10:15:17.587Z,9.47
2022-08-17T10:18:54.602Z,7.17
2022-08-17T10:21:44.098Z,7.30
2022-08-17T10:25:23.227Z,7.03
2022-08-17T10:28:19.765Z,7.13
2022-08-17T10:31:16.787Z,6.80
2022-08-17T10:34:00.460Z,8.63
2022-08-17T10:36:56.048Z,6.47
2022-08-17T10:40:00.836Z,6.20
2022-08-17T10:42:44.567Z,6.47
2022-08-17T10:45:26.340Z,7.10
2022-08-17T10:48:06.245Z,8.40
2022-08-17T10:51:00.000Z,8.57
2022-08-17T10:53:32.990Z,10.70
2022-08-17T10:56:12.338Z,11.37
2022-08-17T10:59:01.075Z,11.47
2022-08-17T11:02:01.134Z,10.10
2022-08-17T11:04:48.861Z,10.23
2022-08-17T11:07:45.436Z,9.10
2022-08-17T11:10:42.993Z,9.03
2022-08-17T11:13:44.744Z,11.17
2022-08-17T11:16:49.736Z,9.20
2022-08-17T11:19:44.146Z,7.50
2022-08-17T11:22:48.948Z,9.57
2022-08-17T11:25:20.168Z,8.50
2022-08-17T11:27:53.644Z,9.30
2022-08-17T11:30:40.522Z,9.53
2022-08-17T11:33:29.379Z,9.33
2022-08-17T11:36:33.123Z,8.73
2022-08-17T11:39:40.821Z,8.30
2022-08-17T11:42:42.290Z,9.13
2022-08-17T11:45:37.057Z,7.43
2022-08-17T11:49:08.936Z,8.77
2022-08-17T11:52:01.344Z,10.47
2022-08-17T11:54:34.123Z,14.83
2022-08-17T11:57:27.236Z,8.10
2022-08-17T12:00:03.060Z,7.47
2022-08-17T12:02:36.142Z,7.33
2022-08-17T12:05:16.972Z,8.97
2022-08-17T12:08:08.426Z,8.90
2022-08-17T12:10:47.985Z,6.80
2022-08-17T12:13:17.860Z,7.53
2022-08-17T12:15:50.632Z,7.50
2022-08-17T12:18:32.324Z,6.57
2022-08-17T12:21:27.640Z,6.03
2022-08-17T12:24:35.515Z,5.23
2022-08-17T12:27:06.710Z,6.93
2022-08-17T12:29:39.134Z,6.00
2022-08-17T12:32:13.156Z,6.47
2022-08-17T12:34:43.296Z,5.70
2022-08-17T12:37:26.371Z,8.40
2022-08-17T12:40:08.359Z,3.80
2022-08-17T12:42:39.322Z,3.30
2022-08-17T12:45:22.121Z,3.43
2022-08-17T12:47:49.464Z,3.20
2022-08-17T12:50:29.485Z,3.43
2022-08-17T12:53:01.961Z,3.83
2022-08-17T12:55:35.345Z,4.13
2022-08-17T12:58:03.054Z,3.83
2022-08-17T13:00:38.123Z,4.70
2022-08-17T13:03:22.098Z,3.50
2022-08-17T13:06:34.213Z,6.80
2022-08-17T13:09:35.830Z,3.73
2022-08-17T13:12:08.354Z,4.00
2022-08-17T13:14:35.798Z,4.33
2022-08-17T13:17:11.044Z,4.23
2022-08-17T13:19:50.220Z,5.87
2022-08-17T13:22:23.478Z,3.40
2022-08-17T13:25:05.486Z,6.13
2022-08-17T13:27:34.177Z,3.60
2022-08-17T13:30:11.167Z,5.23
2022-08-17T13:32:46.510Z,3.70
2022-08-17T13:35:40.084Z,4.50
2022-08-17T13:38:36.586Z,3.03
2022-08-17T13:41:06.313Z,5.20
2022-08-17T13:43:50.644Z,5.20
2022-08-17T13:46:27.898Z,3.30
2022-08-17T13:49:12.091Z,4.33
2022-08-17T13:51:46.182Z,3.87
2022-08-17T13:54:40.159Z,5.03
2022-08-17T13:57:22.914Z,4.53
2022-08-17T13:59:55.917Z,3.83
2022-08-17T14:05:06.115Z,4.07
2022-08-17T14:07:39.895Z,4.17
2022-08-17T14:10:17.813Z,3.87
2022-08-17T14:12:45.579Z,4.07
2022-08-17T14:15:16.668Z,3.73
2022-08-17T14:17:44.227Z,3.50
2022-08-17T14:20:13.535Z,4.03
2022-08-17T14:22:46.326Z,4.67
2022-08-17T14:25:17.710Z,4.13
2022-08-17T14:27:52.262Z,4.17
2022-08-17T14:30:24.676Z,4.63
2022-08-17T14:32:53.355Z,3.93
2022-08-17T14:35:23.498Z,3.57
2022-08-17T14:37:52.155Z,4.37
2022-08-17T14:40:20.832Z,4.00
2022-08-17T14:42:48.372Z,4.50
2022-08-17T14:45:27.134Z,6.27
2022-08-17T14:48:07.910Z,3.47
2022-08-17T14:50:39.338Z,3.97
2022-08-17T14:53:10.202Z,6.93
2022-08-17T14:55:40.858Z,4.00
2022-08-17T14:58:09.266Z,4.83
2022-08-17T15:00:37.888Z,7.33
2022-08-17T15:03:05.284Z,5.20
2022-08-17T15:05:36.787Z,6.20
2022-08-17T15:08:05.770Z,5.00
2022-08-17T15:10:33.584Z,7.50
2022-08-17T15:13:01.216Z,5.93
2022-08-17T15:15:29.713Z,5.97
2022-08-17T15:17:57.784Z,5.73
2022-08-17T15:20:29.022Z,4.83
2022-08-17T15:22:59.150Z,7.10
2022-08-17T15:25:29.994Z,4.10
2022-08-17T15:27:58.090Z,4.13
2022-08-17T15:30:26.543Z,4.57
2022-08-17T15:32:55.449Z,4.87
2022-08-17T15:35:30.144Z,4.97
2022-08-17T15:38:11.619Z,4.87
2022-08-17T15:40:45.393Z,4.40
2022-08-17T15:43:27.376Z,4.93
2022-08-17T15:46:01.786Z,4.97
2022-08-17T15:48:42.108Z,4.57
2022-08-17T15:51:12.170Z,4.20
2022-08-17T15:53:42.446Z,5.10
2022-08-17T15:56:11.264Z,4.77
2022-08-17T15:58:38.466Z,4.80
2022-08-17T16:01:14.889Z,7.50
2022-08-17T16:04:06.710Z,4.97
2022-08-17T16:06:34.751Z,5.03
2022-08-17T16:09:01.890Z,5.30
2022-08-17T16:11:29.022Z,4.67
2022-08-17T16:13:56.144Z,5.70
2022-08-17T16:16:24.206Z,5.73
2022-08-17T16:18:56.988Z,4.13
2022-08-17T16:21:26.040Z,4.20
2022-08-17T16:24:00.956Z,4.87
2022-08-17T16:26:32.095Z,4.67
2022-08-17T16:29:01.403Z,4.73
2022-08-17T16:31:29.334Z,3.60
2022-08-17T16:34:16.369Z,3.83
2022-08-17T16:36:54.996Z,3.43
2022-08-17T16:39:27.596Z,5.23
2022-08-17T16:41:56.156Z,3.13
2022-08-17T16:44:23.842Z,4.10
2022-08-17T16:46:51.324Z,3.63
2022-08-17T16:49:35.509Z,3.80
2022-08-17T16:52:10.888Z,4.60
2022-08-17T16:54:43.477Z,4.50
2022-08-17T16:57:13.182Z,4.27
2022-08-17T16:59:43.654Z,3.60
2022-08-17T17:02:24.866Z,4.17
2022-08-17T17:05:10.733Z,3.70
2022-08-17T17:08:09.128Z,6.37
2022-08-17T17:10:46.083Z,6.23
2022-08-17T17:13:41.357Z,5.70
2022-08-17T17:16:21.881Z,5.57
2022-08-17T17:19:11.084Z,7.37
2022-08-17T17:21:52.046Z,5.50
2022-08-17T17:24:52.718Z,5.70
2022-08-17T17:27:47.497Z,7.83
2022-08-17T17:30:29.509Z,7.40
2022-08-17T17:33:10.860Z,6.07
2022-08-17T17:35:54.070Z,7.00
2022-08-17T17:38:32.949Z,5.30
2022-08-17T17:41:10.885Z,7.30
2022-08-17T17:43:40.046Z,5.27
2022-08-17T17:46:37.933Z,5.20
2022-08-17T17:49:06.215Z,6.80
2022-08-17T17:52:09.302Z,3.97
2022-08-17T17:54:56.437Z,4.70
2022-08-17T17:57:45.315Z,4.80
2022-08-17T18:00:15.378Z,5.33
2022-08-17T18:03:01.460Z,4.47
2022-08-17T18:05:37.413Z,4.10
2022-08-17T18:08:16.595Z,4.87
2022-08-17T18:11:06.957Z,4.10
2022-08-17T18:13:53.385Z,4.47
2022-08-17T18:16:20.851Z,4.40
2022-08-17T18:18:52.027Z,4.70
2022-08-17T18:21:38.053Z,5.80
2022-08-17T18:24:08.173Z,4.70
2022-08-17T18:26:57.103Z,4.33
2022-08-17T18:29:57.764Z,3.80
2022-08-17T18:32:35.824Z,4.13
2022-08-17T18:35:08.777Z,13.33
2022-08-17T18:37:47.829Z,4.40
2022-08-17T18:40:26.063Z,4.23
2022-08-17T18:43:23.374Z,5.73
2022-08-17T18:45:54.198Z,3.97
2022-08-17T18:48:58.917Z,4.03
2022-08-17T18:51:41.577Z,5.73
2022-08-17T18:54:22.402Z,3.13
2022-08-17T18:56:56.155Z,5.13
2022-08-17T18:59:49.449Z,4.13
2022-08-17T19:02:43.447Z,4.20
2022-08-17T19:05:41.714Z,4.90
2022-08-17T19:08:20.253Z,5.17
2022-08-17T19:11:03.519Z,5.30
2022-08-17T19:13:43.135Z,7.27
2022-08-17T19:16:22.308Z,4.17
2022-08-17T19:19:20.328Z,6.80
2022-08-17T19:21:56.261Z,4.17
2022-08-17T19:24:30.803Z,6.67
2022-08-17T19:27:14.350Z,5.13
2022-08-17T19:30:08.441Z,6.13
2022-08-17T19:32:36.105Z,5.10
2022-08-17T19:35:06.821Z,5.80
2022-08-17T19:37:51.529Z,7.40
2022-08-17T19:41:01.730Z,8.80
2022-08-17T19:44:01.531Z,8.63
2022-08-17T19:47:00.595Z,7.40
2022-08-17T19:49:48.490Z,7.50
2022-08-17T19:52:54.264Z,5.70
2022-08-17T19:55:43.137Z,10.40
2022-08-17T19:58:34.533Z,8.57
2022-08-17T20:01:01.744Z,6.73
2022-08-17T20:03:45.884Z,6.83
2022-08-17T20:06:14.084Z,7.43
2022-08-17T20:08:58.623Z,8.93
2022-08-17T20:11:34.083Z,10.20
2022-08-17T20:14:13.165Z,11.77
2022-08-17T20:16:40.544Z,7.93
2022-08-17T20:19:52.946Z,6.93
2022-08-17T20:22:51.953Z,11.03
2022-08-17T20:25:57.020Z,7.80
2022-08-17T20:28:31.833Z,7.03
2022-08-17T20:30:59.314Z,8.03
2022-08-17T20:33:37.225Z,7.97
2022-08-17T20:36:20.504Z,9.30
2022-08-17T20:38:58.836Z,7.43
2022-08-17T20:41:30.989Z,7.83
2022-08-17T20:43:58.638Z,9.60
2022-08-17T20:46:37.471Z,8.37
2022-08-17T20:49:27.004Z,7.53
2022-08-17T20:52:35.543Z,10.10
2022-08-17T20:55:04.498Z,9.40
2022-08-17T20:57:31.768Z,7.33
2022-08-17T21:00:29.365Z,7.67
2022-08-17T21:03:26.713Z,7.00
2022-08-17T21:06:17.160Z,7.83
2022-08-17T21:09:12.785Z,7.20
2022-08-17T21:12:02.240Z,6.00
2022-08-17T21:15:04.000Z,9.30
2022-08-17T21:17:48.325Z,7.27
2022-08-17T21:21:15.378Z,7.20
2022-08-17T21:23:56.075Z,7.83
2022-08-17T21:26:58.145Z,6.70
2022-08-17T21:29:31.990Z,12.70
2022-08-17T21:31:59.718Z,7.00
2022-08-17T21:34:38.836Z,6.37
2022-08-17T21:37:23.868Z,7.43
2022-08-17T21:40:18.738Z,6.37
2022-08-17T21:42:59.340Z,9.37
2022-08-17T21:45:29.898Z,6.97
2022-08-17T21:48:20.427Z,7.10
2022-08-17T21:51:12.110Z,6.43
2022-08-17T21:53:42.380Z,7.87
2022-08-17T21:56:12.658Z,6.30
2022-08-17T21:58:48.294Z,7.00
2022-08-17T22:01:23.746Z,6.30
2022-08-17T22:03:58.486Z,6.10
2022-08-17T22:06:57.347Z,6.77
2022-08-17T22:09:45.454Z,5.53
2022-08-17T22:12:18.483Z,7.87
2022-08-17T22:15:00.252Z,6.40
2022-08-17T22:17:36.563Z,6.23
2022-08-17T22:20:17.741Z,6.40
2022-08-17T22:23:12.099Z,6.90
2022-08-17T22:26:02.102Z,5.60
2022-08-17T22:28:40.577Z,7.37
2022-08-17T22:31:14.465Z,7.87
2022-08-17T22:34:07.521Z,6.50
2022-08-17T22:36:39.388Z,8.30
2022-08-17T22:39:09.429Z,6.70
2022-08-17T22:41:57.154Z,6.93
2022-08-17T22:44:37.656Z,6.80
2022-08-17T22:47:17.234Z,8.00
2022-08-17T22:49:53.904Z,8.30
2022-08-17T22:53:00.579Z,7.00
2022-08-17T22:55:50.421Z,6.73
2022-08-17T22:58:43.216Z,7.00
2022-08-17T23:01:34.836Z,7.70
2022-08-17T23:04:28.898Z,7.40
2022-08-17T23:06:56.401Z,7.17
2022-08-17T23:09:23.939Z,6.73
2022-08-17T23:11:58.813Z,7.23
2022-08-17T23:14:31.398Z,8.40
2022-08-17T23:16:59.362Z,7.80
2022-08-17T23:19:28.058Z,8.97
2022-08-17T23:21:56.478Z,8.07
2022-08-17T23:24:27.990Z,8.73
2022-08-17T23:26:59.400Z,7.17
2022-08-17T23:29:29.386Z,8.40
2022-08-17T23:31:59.740Z,7.53
2022-08-17T23:34:28.391Z,7.10
2022-08-17T23:36:56.008Z,7.87
2022-08-17T23:39:27.864Z,7.17
2022-08-17T23:41:58.396Z,5.63
2022-08-17T23:44:26.334Z,7.13
2022-08-17T23:46:54.590Z,7.20
2022-08-17T23:49:22.198Z,6.93
2022-08-17T23:51:49.420Z,6.27
2022-08-17T23:54:41.500Z,7.10
2022-08-17T23:57:09.332Z,6.93
2022-08-17T23:59:37.139Z,7.03
